Time;durP1;ratioP1;P1;durP2;ratioP2;P2;SDS_P1;SDS_P2;PMS_P1;PMS_P2;Temp;Humidity;BMP_temperature;BMP_pressure;BME280_temperature;BME280_humidity;BME280_pressure;Samples;Min_cycle;Max_cycle;Signal;HPM_P1;HPM_P2
2023/08/15 00:00:56;;;;;;;3.87;3.57;;;;;;;22.60;97.88;100190.59;5072935;28;20220;-76
2023/08/15 00:03:23;;;;;;;4.27;3.23;;;;;;;22.64;97.68;100193.03;5072779;28;20287;-76
2023/08/15 00:05:49;;;;;;;4.77;3.20;;;;;;;22.66;96.88;100199.09;5072482;28;20693;-76
2023/08/15 00:08:17;;;;;;;9.37;4.17;;;;;;;22.68;96.61;100205.16;5072587;28;20197;-76
2023/08/15 00:10:43;;;;;;;4.43;4.03;;;;;;;22.57;97.82;100190.81;5072287;28;20232;-76
2023/08/15 00:13:10;;;;;;;13.97;3.67;;;;;;;22.55;98.00;100189.22;5071950;28;20208;-76
2023/08/15 00:15:37;;;;;;;3.50;3.30;;;;;;;22.49;98.29;100187.03;5072912;28;20242;-76
2023/08/15 00:18:03;;;;;;;3.80;3.40;;;;;;;22.46;99.19;100173.94;5073468;28;20204;-76
2023/08/15 00:20:30;;;;;;;3.83;3.53;;;;;;;22.46;98.83;100173.94;5073045;28;20581;-77
2023/08/15 00:22:56;;;;;;;4.47;3.60;;;;;;;22.47;98.67;100181.81;5073588;28;20205;-76
2023/08/15 00:25:24;;;;;;;3.60;3.20;;;;;;;22.26;99.37;100172.72;5072682;28;20675;-76
2023/08/15 00:27:51;;;;;;;4.13;3.73;;;;;;;22.39;99.71;100171.72;5072179;28;20211;-76
2023/08/15 00:30:17;;;;;;;6.57;3.67;;;;;;;22.44;98.60;100183.84;5071943;28;20217;-76
2023/08/15 00:32:44;;;;;;;6.13;3.50;;;;;;;22.48;97.85;100191.50;5072182;28;20225;-76
2023/08/15 00:35:11;;;;;;;6.83;4.73;;;;;;;22.52;97.21;100197.44;5071540;28;20578;-76
2023/08/15 00:37:37;;;;;;;3.93;3.57;;;;;;;22.54;96.55;100207.00;5071024;28;20626;-76
2023/08/15 00:40:06;;;;;;;6.50;4.00;;;;;;;22.54;96.48;100220.31;5072144;28;20199;-76
2023/08/15 00:42:34;;;;;;;4.10;3.80;;;;;;;22.54;96.32;100222.13;5072187;28;20221;-76
2023/08/15 00:45:00;;;;;;;4.70;3.53;;;;;;;22.57;96.22;100224.56;5071305;28;20663;-76
2023/08/15 00:47:27;;;;;;;3.90;3.60;;;;;;;22.51;97.00;100215.19;5071866;28;20681;-76
2023/08/15 00:49:54;;;;;;;4.20;3.83;;;;;;;22.51;95.83;100230.31;5071172;28;20231;-76
2023/08/15 00:52:21;;;;;;;7.87;3.83;;;;;;;22.43;96.55;100217.56;5071745;28;20595;-76
2023/08/15 00:54:50;;;;;;;4.40;3.67;;;;;;;22.39;97.13;100214.28;5071617;28;20201;-76
2023/08/15 00:57:18;;;;;;;6.37;3.83;;;;;;;22.42;96.39;100215.88;5063465;28;20205;-76
2023/08/15 00:59:46;;;;;;;6.90;4.30;;;;;;;22.39;97.17;100206.28;5071195;28;20236;-76
2023/08/15 01:02:13;;;;;;;3.83;3.53;;;;;;;22.39;97.12;100205.47;5071860;28;20229;-76
2023/08/15 01:04:41;;;;;;;4.10;3.70;;;;;;;22.32;97.68;100196.22;5071442;28;20204;-76
2023/08/15 01:07:07;;;;;;;4.47;3.50;;;;;;;22.27;98.49;100172.63;5071554;28;20209;-76
2023/08/15 01:09:33;;;;;;;3.87;3.43;;;;;;;22.25;98.70;100171.03;5071365;28;20240;-76
2023/08/15 01:12:11;;;;;;;4.90;4.40;;;;;;;22.25;98.64;100161.25;5071698;28;20236;-76
2023/08/15 01:14:44;;;;;;;5.53;4.17;;;;;;;22.24;98.56;100170.19;5070108;28;20196;-76
2023/08/15 01:17:19;;;;;;;6.63;3.43;;;;;;;22.24;97.97;100169.28;5071266;28;20216;-76
2023/08/15 01:19:49;;;;;;;7.37;4.40;;;;;;;22.23;98.44;100164.94;5071421;28;20204;-76
2023/08/15 01:22:17;;;;;;;3.43;3.20;;;;;;;22.19;98.34;100175.78;5071169;28;20220;-76
2023/08/15 01:24:46;;;;;;;3.63;3.07;;;;;;;22.18;98.37;100173.25;5071781;28;20603;-76
2023/08/15 01:27:12;;;;;;;5.87;3.80;;;;;;;22.20;98.18;100172.19;5070853;28;20211;-76
2023/08/15 01:29:39;;;;;;;4.03;3.67;;;;;;;22.20;98.01;100177.50;5070417;28;20722;-76
2023/08/15 01:32:13;;;;;;;4.07;3.57;;;;;;;22.19;98.16;100188.25;5071335;28;20221;-76
2023/08/15 01:34:45;;;;;;;5.73;3.70;;;;;;;22.20;98.22;100184.63;5071208;28;20588;-76
2023/08/15 01:37:20;;;;;;;5.53;3.80;;;;;;;22.11;98.94;100169.34;5070893;28;20707;-76
2023/08/15 01:39:51;;;;;;;8.17;3.60;;;;;;;22.10;99.12;100159.66;5071296;28;20579;-76
2023/08/15 01:42:21;;;;;;;3.70;3.27;;;;;;;22.07;99.33;100158.06;5070908;28;20709;-76
2023/08/15 01:44:49;;;;;;;6.00;3.40;;;;;;;22.05;98.82;100169.78;5071051;28;20212;-76
2023/08/15 01:47:15;;;;;;;3.93;3.60;;;;;;;22.13;98.21;100173.56;5072241;28;20216;-76
2023/08/15 01:49:42;;;;;;;7.23;3.53;;;;;;;22.17;97.76;100184.84;5075034;28;20201;-76
2023/08/15 01:52:08;;;;;;;5.10;3.23;;;;;;;22.16;97.48;100193.75;5074846;28;20224;-76
2023/08/15 01:54:35;;;;;;;4.50;4.10;;;;;;;22.13;97.67;100186.03;5073867;28;20213;-76
2023/08/15 01:57:03;;;;;;;6.23;3.70;;;;;;;22.08;97.33;100194.34;5073979;28;20217;-76
2023/08/15 01:59:29;;;;;;;3.77;3.07;;;;;;;22.13;97.71;100197.50;5074540;28;20236;-76
2023/08/15 02:01:56;;;;;;;3.57;3.20;;;;;;;22.14;97.66;100193.91;5075171;28;20225;-76
2023/08/15 02:04:22;;;;;;;3.77;3.47;;;;;;;22.07;98.44;100187.31;5066636;28;20213;-76
2023/08/15 02:06:49;;;;;;;4.40;3.70;;;;;;;22.04;98.28;100179.56;5074551;28;20276;-76
2023/08/15 02:09:15;;;;;;;4.47;4.03;;;;;;;21.98;98.68;100172.88;5074694;28;20204;-76
2023/08/15 02:11:42;;;;;;;4.97;3.20;;;;;;;21.96;98.86;100176.56;5074503;28;20232;-76
2023/08/15 02:14:10;;;;;;;7.63;3.87;;;;;;;21.86;99.46;100165.75;5074195;28;20722;-76
2023/08/15 02:16:36;;;;;;;3.90;3.57;;;;;;;21.88;99.30;100166.50;5074695;28;20254;-76
2023/08/15 02:19:03;;;;;;;4.20;3.37;;;;;;;21.93;99.01;100167.03;5073939;28;20683;-76
2023/08/15 02:21:29;;;;;;;4.50;3.40;;;;;;;21.96;98.67;100165.94;5074576;28;20228;-76
2023/08/15 02:23:56;;;;;;;7.10;3.47;;;;;;;21.93;98.73;100164.38;5074319;28;20200;-76
2023/08/15 02:26:22;;;;;;;7.07;3.43;;;;;;;21.90;99.40;100150.44;5074539;28;20201;-76
2023/08/15 02:28:49;;;;;;;5.83;3.17;;;;;;;21.90;99.12;100158.41;5074159;28;20224;-76
2023/08/15 02:31:17;;;;;;;3.67;3.37;;;;;;;21.88;99.52;100147.03;5074418;28;20240;-76
2023/08/15 02:33:43;;;;;;;4.90;3.63;;;;;;;21.90;99.19;100151.31;5074142;28;20204;-76
2023/08/15 02:36:10;;;;;;;5.60;3.67;;;;;;;21.92;98.84;100154.72;5074331;28;20216;-76
2023/08/15 02:38:36;;;;;;;4.27;3.27;;;;;;;21.89;99.23;100154.06;5073886;28;20667;-76
2023/08/15 02:41:03;;;;;;;3.80;3.50;;;;;;;21.91;98.51;100163.63;5074453;28;20230;-76
2023/08/15 02:43:30;;;;;;;3.27;2.80;;;;;;;21.94;98.40;100163.41;5073727;28;20211;-76
2023/08/15 02:45:56;;;;;;;4.23;3.70;;;;;;;21.93;98.48;100159.06;5074468;28;20202;-76
2023/08/15 02:48:24;;;;;;;4.60;3.10;;;;;;;21.97;97.59;100178.28;5073957;28;20670;-76
2023/08/15 02:50:50;;;;;;;3.73;3.37;;;;;;;21.96;97.18;100182.75;5073951;28;20231;-76
2023/08/15 02:53:17;;;;;;;6.80;3.20;;;;;;;21.96;97.77;100179.22;5073734;28;20220;-76
2023/08/15 02:55:43;;;;;;;3.20;3.00;;;;;;;21.94;97.70;100187.34;5074021;28;20576;-76
2023/08/15 02:58:10;;;;;;;5.33;3.20;;;;;;;21.98;97.09;100196.78;5073087;28;20223;-76
2023/08/15 03:00:37;;;;;;;3.60;3.30;;;;;;;21.99;96.59;100203.78;5073034;28;20208;-76
2023/08/15 03:03:04;;;;;;;7.97;3.57;;;;;;;21.92;97.90;100189.25;5074006;28;20208;-76
2023/08/15 03:05:31;;;;;;;3.93;3.23;;;;;;;21.92;97.11;100209.66;5073731;28;20205;-76
2023/08/15 03:07:58;;;;;;;3.63;3.30;;;;;;;21.92;97.13;100201.66;5073491;28;20804;-76
2023/08/15 03:10:24;;;;;;;5.93;3.40;;;;;;;21.93;97.24;100198.06;5073374;28;20702;-76
2023/08/15 03:12:51;;;;;;;4.13;3.07;;;;;;;21.90;97.61;100201.81;5073712;28;20228;-76
2023/08/15 03:15:17;;;;;;;4.00;3.60;;;;;;;21.90;97.59;100200.94;5073233;28;20205;-76
2023/08/15 03:17:44;;;;;;;5.67;3.37;;;;;;;21.83;97.98;100202.34;5073814;28;20205;-76
2023/08/15 03:20:11;;;;;;;7.60;3.43;;;;;;;21.83;97.80;100195.22;5073158;28;20209;-77
2023/08/15 03:22:42;;;;;;;3.30;2.97;;;;;;;21.86;97.84;100192.31;5060380;28;20252;-76
2023/08/15 03:25:09;;;;;;;3.80;3.30;;;;;;;21.86;98.00;100189.66;5053258;28;20671;-76
2023/08/15 03:27:36;;;;;;;3.90;3.20;;;;;;;21.83;98.64;100175.75;5053435;28;20208;-76
2023/08/15 03:30:02;;;;;;;3.13;2.93;;;;;;;21.79;98.83;100170.66;5052701;28;20205;-76
2023/08/15 03:32:29;;;;;;;6.33;3.07;;;;;;;21.81;98.36;100175.88;5065270;28;20255;-76
2023/08/15 03:34:55;;;;;;;3.07;2.77;;;;;;;21.83;98.15;100186.41;5065856;28;20201;-76
2023/08/15 03:37:22;;;;;;;3.50;3.13;;;;;;;21.80;98.25;100179.47;5073206;28;20678;-76
2023/08/15 03:39:50;;;;;;;4.00;3.20;;;;;;;21.78;98.47;100178.72;5072986;28;20201;-76
2023/08/15 03:42:16;;;;;;;3.60;3.30;;;;;;;21.80;97.56;100184.78;5073339;28;20306;-76
2023/08/15 03:44:42;;;;;;;4.93;3.43;;;;;;;21.83;97.41;100197.88;5072762;28;20208;-76
2023/08/15 03:47:09;;;;;;;5.63;3.30;;;;;;;21.83;97.79;100195.22;5073204;28;20221;-76
2023/08/15 03:49:36;;;;;;;4.73;3.20;;;;;;;21.83;97.97;100191.72;5072864;28;20204;-76
2023/08/15 03:52:02;;;;;;;4.97;3.30;;;;;;;21.81;97.57;100189.16;5073196;28;20319;-77
2023/08/15 03:54:28;;;;;;;5.27;3.90;;;;;;;21.84;97.43;100193.41;5072722;28;20211;-76
2023/08/15 03:56:56;;;;;;;6.60;3.43;;;;;;;21.81;97.42;100182.03;5072904;28;20205;-76
2023/08/15 03:59:23;;;;;;;3.77;3.20;;;;;;;21.84;96.91;100185.41;5071942;28;20582;-76
2023/08/15 04:01:49;;;;;;;3.40;3.10;;;;;;;21.83;97.11;100183.75;5072775;28;20227;-76
2023/08/15 04:04:16;;;;;;;4.33;3.73;;;;;;;21.81;97.13;100181.19;5072641;28;20208;-76
2023/08/15 04:06:42;;;;;;;3.90;2.70;;;;;;;21.71;97.67;100172.16;5072543;28;20208;-76
2023/08/15 04:09:09;;;;;;;3.37;3.13;;;;;;;21.68;98.26;100151.94;5072554;28;20208;-76
2023/08/15 04:11:35;;;;;;;3.67;3.37;;;;;;;21.69;98.28;100145.69;5072494;28;20231;-76
2023/08/15 04:14:03;;;;;;;3.57;3.27;;;;;;;21.63;98.79;100132.00;5071818;28;20208;-76
2023/08/15 04:16:29;;;;;;;3.47;3.17;;;;;;;21.61;99.17;100130.28;5072349;28;20205;-76
2023/08/15 04:18:56;;;;;;;4.33;3.50;;;;;;;21.63;98.92;100139.97;5072036;28;20207;-76
2023/08/15 04:21:22;;;;;;;5.13;3.13;;;;;;;21.59;99.32;100137.50;5072182;28;20598;-76
2023/08/15 04:23:49;;;;;;;5.10;3.40;;;;;;;21.62;99.25;100141.75;5072635;28;20201;-76
2023/08/15 04:26:15;;;;;;;5.07;3.60;;;;;;;21.58;100.00;100148.25;5072184;28;20213;-76
2023/08/15 04:28:42;;;;;;;3.23;3.03;;;;;;;21.61;99.60;100132.94;5071352;28;20204;-76
2023/08/15 04:31:10;;;;;;;4.10;3.20;;;;;;;21.59;99.89;100132.19;5072048;28;20232;-76
2023/08/15 04:33:36;;;;;;;6.27;3.17;;;;;;;21.66;99.21;100153.03;5072175;28;20235;-76
2023/08/15 04:36:03;;;;;;;5.03;3.27;;;;;;;21.68;99.22;100165.22;5072395;28;20212;-76
2023/08/15 04:38:29;;;;;;;3.73;3.43;;;;;;;21.63;100.00;100167.38;5071823;28;20210;-76
2023/08/15 04:40:56;;;;;;;4.43;3.17;;;;;;;21.58;100.00;100177.47;5072163;28;20707;-76
2023/08/15 04:43:22;;;;;;;3.77;3.00;;;;;;;21.60;100.00;100173.75;5071119;28;20222;-76
2023/08/15 04:45:48;;;;;;;3.80;3.40;;;;;;;21.54;100.00;100187.44;5071791;28;20569;-76
2023/08/15 04:48:16;;;;;;;3.47;3.17;;;;;;;21.63;100.00;100188.63;5054521;28;20213;-76
2023/08/15 04:50:43;;;;;;;3.70;3.40;;;;;;;21.73;100.00;100200.31;5051819;28;20225;-76
2023/08/15 04:53:09;;;;;;;4.83;3.70;;;;;;;21.79;100.00;100194.56;5051803;28;20209;-76
2023/08/15 04:55:36;;;;;;;4.53;3.53;;;;;;;21.82;99.37;100220.06;5052569;28;20661;-76
2023/08/15 04:58:02;;;;;;;4.37;3.47;;;;;;;21.82;99.27;100217.41;5051050;28;20210;-76
2023/08/15 05:00:29;;;;;;;5.07;3.20;;;;;;;21.84;100.00;100207.53;5068630;28;20205;-76
2023/08/15 05:02:55;;;;;;;3.10;2.90;;;;;;;21.91;100.00;100195.50;5072096;28;20235;-76
2023/08/15 05:05:23;;;;;;;5.03;3.93;;;;;;;21.97;99.78;100207.53;5071595;28;20215;-76
2023/08/15 05:07:50;;;;;;;3.93;3.57;;;;;;;22.04;98.27;100227.41;5071996;28;20232;-76
2023/08/15 05:10:16;;;;;;;3.40;3.10;;;;;;;22.09;99.63;100217.28;5071272;28;20696;-76
2023/08/15 05:12:43;;;;;;;4.60;3.00;;;;;;;22.12;99.87;100217.09;5071501;28;20225;-76
2023/08/15 05:15:10;;;;;;;3.90;3.60;;;;;;;22.11;99.84;100215.38;5071392;28;20205;-76
2023/08/15 05:17:37;;;;;;;3.27;2.97;;;;;;;22.17;99.74;100211.44;5071614;28;20650;-75
2023/08/15 05:20:04;;;;;;;3.60;3.30;;;;;;;22.26;99.15;100215.25;5071500;28;20227;-75
2023/08/15 05:22:32;;;;;;;4.00;3.30;;;;;;;22.29;99.83;100205.25;5071759;28;20233;-75
2023/08/15 05:24:58;;;;;;;3.70;3.30;;;;;;;22.35;99.98;100204.81;5071860;28;20201;-75
2023/08/15 05:27:25;;;;;;;4.57;3.33;;;;;;;22.39;98.82;100219.59;5071121;28;20209;-75
2023/08/15 05:29:51;;;;;;;6.23;3.60;;;;;;;22.45;98.69;100228.09;5071073;28;20227;-75
2023/08/15 05:32:18;;;;;;;3.50;3.20;;;;;;;22.45;100.00;100222.78;5071365;28;20302;-75
2023/08/15 05:34:44;;;;;;;4.20;3.30;;;;;;;22.47;100.00;100232.34;5071403;28;20200;-74
2023/08/15 05:37:11;;;;;;;3.40;3.10;;;;;;;22.44;100.00;100229.94;5071039;28;20215;-74
2023/08/15 05:39:39;;;;;;;3.50;3.20;;;;;;;22.47;99.90;100244.81;5062926;28;20212;-74
2023/08/15 05:42:05;;;;;;;5.07;3.60;;;;;;;22.55;99.82;100253.06;5071343;28;20227;-74
2023/08/15 05:44:32;;;;;;;3.67;3.37;;;;;;;22.54;99.35;100262.03;5070967;28;20208;-75
2023/08/15 05:46:59;;;;;;;3.97;3.67;;;;;;;22.50;97.98;100274.69;5068983;28;20567;-75
2023/08/15 05:49:25;;;;;;;5.47;3.57;;;;;;;22.60;99.66;100264.25;5071080;28;20216;-75
2023/08/15 05:51:52;;;;;;;3.77;3.10;;;;;;;22.57;100.00;100248.50;5071026;28;20231;-75
2023/08/15 05:54:19;;;;;;;3.90;3.60;;;;;;;22.65;99.63;100255.94;5071150;28;20209;-75
2023/08/15 05:56:47;;;;;;;4.23;3.70;;;;;;;22.69;99.01;100268.03;5071023;28;20208;-75
2023/08/15 05:59:13;;;;;;;4.53;4.13;;;;;;;22.69;100.00;100260.91;5070499;28;20212;-75
2023/08/15 06:01:40;;;;;;;4.03;3.73;;;;;;;22.66;99.59;100274.44;5063106;28;20220;-74
2023/08/15 06:04:06;;;;;;;5.53;3.50;;;;;;;22.67;99.00;100278.78;5070550;28;20212;-75
2023/08/15 06:06:33;;;;;;;4.03;3.53;;;;;;;22.72;99.04;100286.47;5071146;28;20208;-75
2023/08/15 06:08:59;;;;;;;4.03;3.63;;;;;;;22.76;99.25;100282.63;5070705;28;20283;-74
2023/08/15 06:11:26;;;;;;;4.57;3.30;;;;;;;22.78;97.63;100297.50;5070797;28;20766;-75
2023/08/15 06:13:54;;;;;;;3.90;3.53;;;;;;;22.88;100.00;100260.44;5070300;28;20201;-75
2023/08/15 06:16:20;;;;;;;3.70;3.33;;;;;;;22.90;100.00;100247.84;5070883;28;20212;-75
2023/08/15 06:18:47;;;;;;;5.70;3.50;;;;;;;22.83;100.00;100257.25;5070572;28;20208;-75
2023/08/15 06:21:14;;;;;;;7.33;4.47;;;;;;;22.76;100.00;100258.66;5070986;28;20597;-75
2023/08/15 06:23:40;;;;;;;5.77;3.80;;;;;;;22.74;100.00;100258.78;5070698;28;20205;-76
2023/08/15 06:26:07;;;;;;;4.77;4.00;;;;;;;22.68;100.00;100253.91;5073068;28;20723;-78
2023/08/15 06:28:33;;;;;;;4.47;3.60;;;;;;;22.63;100.00;100263.16;5071327;28;20299;-77
2023/08/15 06:31:01;;;;;;;4.50;3.57;;;;;;;22.51;100.00;100283.53;5073151;28;20228;-78
2023/08/15 06:33:28;;;;;;;4.20;3.90;;;;;;;22.54;100.00;100283.31;5073562;28;20578;-78
2023/08/15 06:35:54;;;;;;;4.00;3.60;;;;;;;22.54;100.00;100308.09;5075853;28;20274;-78
2023/08/15 06:38:21;;;;;;;5.17;4.67;;;;;;;22.52;100.00;100326.00;5078046;28;20223;-78
2023/08/15 06:40:47;;;;;;;4.53;4.23;;;;;;;22.51;100.00;100323.44;5077831;28;20196;-77
2023/08/15 06:43:14;;;;;;;4.97;4.57;;;;;;;22.27;100.00;100320.69;5077324;28;20294;-79
2023/08/15 06:45:40;;;;;;;4.67;4.37;;;;;;;22.26;100.00;100308.34;5078297;28;20200;-78
2023/08/15 06:48:08;;;;;;;4.23;3.93;;;;;;;22.27;100.00;100326.84;5079064;28;20200;-78
2023/08/15 06:50:35;;;;;;;5.53;3.90;;;;;;;22.08;100.00;100310.44;5078970;28;20258;-79
2023/08/15 06:53:01;;;;;;;5.37;4.50;;;;;;;22.08;100.00;100318.41;5078192;28;20227;-79
2023/08/15 06:55:28;;;;;;;5.53;4.77;;;;;;;21.97;100.00;100297.91;5074804;28;20204;-75
2023/08/15 06:57:54;;;;;;;3.67;3.33;;;;;;;21.81;100.00;100263.56;5073679;28;20205;-75
2023/08/15 07:00:21;;;;;;;4.10;3.70;;;;;;;21.61;100.00;100217.09;5073464;28;20209;-75
2023/08/15 07:02:48;;;;;;;2.97;2.77;;;;;;;21.73;100.00;100215.41;5073965;28;20224;-76
2023/08/15 07:05:16;;;;;;;3.80;3.50;;;;;;;21.80;100.00;100225.50;5073446;28;20623;-75
2023/08/15 07:07:42;;;;;;;4.20;3.50;;;;;;;21.83;100.00;100199.69;5073711;28;20208;-76
2023/08/15 07:10:10;;;;;;;4.57;3.40;;;;;;;21.75;100.00;100177.13;5074779;28;20208;-79
2023/08/15 07:12:36;;;;;;;2.60;2.40;;;;;;;21.66;100.00;100174.28;5078771;28;20228;-78
2023/08/15 07:15:03;;;;;;;3.30;2.73;;;;;;;21.39;100.00;100173.38;5078935;28;20212;-80
2023/08/15 07:17:30;;;;;;;3.23;2.47;;;;;;;21.58;100.00;100154.38;5079154;28;20205;-79
2023/08/15 07:19:57;;;;;;;2.60;2.40;;;;;;;21.72;100.00;100140.16;5079211;28;20686;-80
2023/08/15 07:22:24;;;;;;;2.67;2.00;;;;;;;21.86;100.00;100146.31;5077533;28;20688;-77
2023/08/15 07:24:51;;;;;;;18.43;3.40;;;;;;;21.96;100.00;100158.84;5075710;28;20579;-77
2023/08/15 07:27:17;;;;;;;3.63;2.33;;;;;;;22.04;100.00;100160.09;5075090;28;20211;-78
2023/08/15 07:29:44;;;;;;;2.37;2.17;;;;;;;22.11;100.00;100172.84;5073253;28;20608;-76
2023/08/15 07:32:11;;;;;;;2.50;2.30;;;;;;;22.16;100.00;100189.31;5073268;28;20233;-76
2023/08/15 07:34:37;;;;;;;2.07;1.90;;;;;;;22.18;100.00;100189.22;5076888;28;20563;-76
2023/08/15 07:37:04;;;;;;;2.63;1.87;;;;;;;22.26;100.00;100200.19;5067747;28;20209;-75
2023/08/15 07:39:32;;;;;;;2.27;1.73;;;;;;;22.29;100.00;100207.09;5055152;28;20232;-76
2023/08/15 07:41:58;;;;;;;1.57;1.40;;;;;;;22.31;100.00;100248.56;5053626;28;20218;-76
2023/08/15 07:44:25;;;;;;;1.93;1.83;;;;;;;22.34;100.00;100276.75;5052778;28;20227;-76
2023/08/15 07:46:52;;;;;;;1.40;1.40;;;;;;;22.42;100.00;100295.69;5053147;28;20198;-76
2023/08/15 07:49:19;;;;;;;2.10;1.90;;;;;;;22.49;100.00;100302.25;5066930;28;20623;-76
2023/08/15 07:51:46;;;;;;;1.63;1.53;;;;;;;22.40;100.00;100286.97;5067813;28;20289;-75
2023/08/15 07:54:12;;;;;;;1.60;1.50;;;;;;;22.36;100.00;100318.25;5073090;28;20209;-76
2023/08/15 07:56:40;;;;;;;2.00;1.43;;;;;;;22.38;100.00;100300.38;5072622;28;20216;-75
2023/08/15 07:59:06;;;;;;;1.60;1.50;;;;;;;22.44;100.00;100276.94;5072371;28;20212;-75
2023/08/15 08:01:33;;;;;;;1.30;1.20;;;;;;;22.54;100.00;100296.63;5072939;28;20232;-75
2023/08/15 08:04:00;;;;;;;1.10;1.10;;;;;;;22.45;100.00;100294.59;5072752;28;20204;-75
2023/08/15 08:06:27;;;;;;;2.10;1.57;;;;;;;22.47;100.00;100301.50;5071396;28;20258;-75
2023/08/15 08:08:53;;;;;;;1.40;1.30;;;;;;;22.46;100.00;100293.63;5075476;28;20232;-79
2023/08/15 08:11:20;;;;;;;1.60;1.30;;;;;;;22.54;100.00;100291.31;5073974;28;20274;-76
2023/08/15 08:13:47;;;;;;;1.47;1.37;;;;;;;22.56;100.00;100292.88;5070005;28;20227;-75
2023/08/15 08:16:14;;;;;;;1.30;1.20;;;;;;;22.62;100.00;100310.22;5067469;28;20219;-75
2023/08/15 08:18:40;;;;;;;1.13;1.03;;;;;;;22.54;100.00;100315.25;5071961;28;20735;-74
2023/08/15 08:21:09;;;;;;;2.63;1.37;;;;;;;22.56;100.00;100318.66;5066286;28;20232;-75
2023/08/15 08:23:36;;;;;;;1.10;1.00;;;;;;;22.39;100.00;100325.13;5065375;28;20564;-77
2023/08/15 08:26:02;;;;;;;1.20;1.10;;;;;;;22.60;100.00;100298.84;5074608;28;20211;-76
2023/08/15 08:28:29;;;;;;;1.53;1.20;;;;;;;22.70;100.00;100313.19;5070875;28;20229;-75
2023/08/15 08:30:57;;;;;;;1.60;1.50;;;;;;;22.62;100.00;100306.72;5072321;28;20235;-75
2023/08/15 08:33:24;;;;;;;1.20;1.10;;;;;;;22.60;100.00;100320.97;5064185;28;20233;-75
2023/08/15 08:35:50;;;;;;;1.57;1.40;;;;;;;22.61;100.00;100329.78;5063772;28;20228;-74
2023/08/15 08:38:17;;;;;;;1.57;1.30;;;;;;;22.76;100.00;100306.56;5071777;28;20212;-75
2023/08/15 08:40:44;;;;;;;1.33;1.23;;;;;;;22.82;100.00;100282.16;5072375;28;20213;-74
2023/08/15 08:43:10;;;;;;;1.30;1.20;;;;;;;22.77;100.00;100298.47;5064993;28;20962;-74
2023/08/15 08:45:40;;;;;;;1.43;1.27;;;;;;;22.86;100.00;100320.91;5051970;28;20679;-76
2023/08/15 08:48:09;;;;;;;2.03;1.37;;;;;;;22.77;100.00;100321.56;5052200;28;20258;-75
2023/08/15 08:50:37;;;;;;;2.30;2.10;;;;;;;22.74;100.00;100309.34;5051542;28;20209;-74
2023/08/15 08:53:04;;;;;;;1.53;1.43;;;;;;;22.80;100.00;100300.06;5051530;28;20714;-74
2023/08/15 08:55:32;;;;;;;1.40;1.30;;;;;;;22.75;100.00;100320.81;5051994;28;20725;-74
2023/08/15 08:58:01;;;;;;;1.70;1.60;;;;;;;22.57;100.00;100315.84;5051103;28;20651;-75
2023/08/15 09:00:32;;;;;;;1.90;1.73;;;;;;;22.65;100.00;100336.59;5068639;28;20222;-75
2023/08/15 09:02:59;;;;;;;1.90;1.70;;;;;;;22.77;100.00;100337.53;5072323;28;20338;-74
2023/08/15 09:05:27;;;;;;;2.63;1.47;;;;;;;22.89;100.00;100351.78;5071966;28;20287;-74
2023/08/15 09:07:54;;;;;;;1.50;1.40;;;;;;;22.79;100.00;100360.44;5071256;28;20204;-74
2023/08/15 09:10:22;;;;;;;1.83;1.73;;;;;;;22.93;100.00;100378.06;5071491;28;20571;-74
2023/08/15 09:12:48;;;;;;;1.50;1.40;;;;;;;22.95;100.00;100408.09;5071002;28;20709;-74
2023/08/15 09:15:15;;;;;;;1.27;1.17;;;;;;;23.12;100.00;100393.59;5071425;28;20204;-74
2023/08/15 09:17:43;;;;;;;1.20;1.10;;;;;;;23.03;99.82;100430.69;5065414;28;20207;-74
2023/08/15 09:20:12;;;;;;;1.47;1.10;;;;;;;23.20;98.18;100464.94;5062574;28;20213;-74
2023/08/15 09:22:44;;;;;;;1.03;1.03;;;;;;;23.33;98.32;100456.91;5071049;28;20228;-74
2023/08/15 09:25:11;;;;;;;2.10;1.30;;;;;;;23.43;95.63;100494.41;5071812;28;20215;-74
2023/08/15 09:27:38;;;;;;;1.10;1.00;;;;;;;23.42;92.07;100567.31;5071296;28;20205;-74
2023/08/15 09:30:10;;;;;;;2.00;1.00;;;;;;;23.40;89.13;100632.19;5071168;28;20200;-75
2023/08/15 09:32:38;;;;;;;0.83;0.83;;;;;;;23.54;90.77;100614.41;5071273;28;20686;-75
2023/08/15 09:35:06;;;;;;;1.10;1.10;;;;;;;23.54;91.09;100599.25;5071228;28;20215;-75
2023/08/15 09:37:32;;;;;;;1.00;1.00;;;;;;;23.58;91.76;100574.09;5071353;28;20293;-75
2023/08/15 09:40:01;;;;;;;1.77;0.90;;;;;;;23.71;90.57;100607.88;5071457;28;20197;-75
2023/08/15 09:42:29;;;;;;;1.40;1.13;;;;;;;23.73;90.57;100609.47;5070894;28;20598;-75
2023/08/15 09:44:56;;;;;;;1.13;1.13;;;;;;;23.88;90.12;100612.03;5070987;28;20196;-75
2023/08/15 09:47:23;;;;;;;2.00;1.20;;;;;;;24.00;94.01;100533.78;5071220;28;20234;-74
2023/08/15 09:49:52;;;;;;;1.13;1.10;;;;;;;24.01;89.99;100580.84;5070545;28;20208;-75
2023/08/15 09:52:20;;;;;;;1.67;1.20;;;;;;;23.94;86.02;100615.13;5071068;28;20224;-75
2023/08/15 09:54:46;;;;;;;1.50;1.40;;;;;;;23.94;84.65;100659.56;5071161;28;20212;-74
2023/08/15 09:57:14;;;;;;;1.53;1.43;;;;;;;23.96;85.38;100679.84;5071118;28;20231;-74
2023/08/15 09:59:41;;;;;;;2.10;1.30;;;;;;;24.13;86.23;100670.63;5070599;28;20217;-75
2023/08/15 10:02:19;;;;;;;1.23;1.13;;;;;;;24.28;87.23;100658.00;5071008;28;20226;-75
2023/08/15 10:04:47;;;;;;;2.40;1.50;;;;;;;24.19;85.22;100682.66;5070984;28;20222;-74
2023/08/15 10:07:14;;;;;;;1.50;1.40;;;;;;;24.29;86.38;100665.03;5070930;28;20209;-75
2023/08/15 10:09:41;;;;;;;1.73;1.57;;;;;;;24.37;87.19;100669.81;5074103;28;20214;-75
2023/08/15 10:12:09;;;;;;;1.57;1.27;;;;;;;24.30;83.63;100719.22;5073554;28;20235;-75
2023/08/15 10:14:38;;;;;;;1.33;1.23;;;;;;;24.31;84.13;100699.59;5073470;28;20205;-74
2023/08/15 10:17:05;;;;;;;1.50;1.40;;;;;;;24.47;83.50;100715.34;5074955;28;20218;-74
2023/08/15 10:19:32;;;;;;;1.80;1.50;;;;;;;24.69;85.35;100690.63;5074741;28;20215;-75
2023/08/15 10:21:59;;;;;;;2.03;1.67;;;;;;;24.51;80.84;100754.22;5074561;28;20224;-74
2023/08/15 10:24:26;;;;;;;1.57;1.47;;;;;;;24.71;81.92;100769.63;5074706;28;20205;-74
2023/08/15 10:26:53;;;;;;;1.93;1.73;;;;;;;24.85;80.66;100786.47;5072122;28;20210;-75
2023/08/15 10:29:20;;;;;;;1.60;1.50;;;;;;;24.84;82.28;100774.09;5053579;28;20237;-75
2023/08/15 10:31:59;;;;;;;1.80;1.70;;;;;;;25.05;80.65;100793.00;5054662;28;20251;-75
2023/08/15 10:34:25;;;;;;;2.40;1.90;;;;;;;24.94;78.98;100848.06;5054280;28;20259;-75
2023/08/15 10:37:29;;;;;;;1.57;1.47;;;;;;;24.86;77.72;100862.97;5054363;28;20209;-75
2023/08/15 10:40:08;;;;;;;1.93;1.83;;;;;;;25.06;79.28;100843.66;5072906;28;20584;-75
2023/08/15 10:43:07;;;;;;;2.23;2.07;;;;;;;25.10;77.63;100845.13;5074290;28;20234;-75
2023/08/15 10:45:36;;;;;;;2.53;1.90;;;;;;;25.15;76.73;100895.53;5061136;28;20224;-75
2023/08/15 10:48:04;;;;;;;2.17;2.07;;;;;;;25.27;76.12;100894.72;5053962;28;20201;-76
2023/08/15 10:50:31;;;;;;;3.20;2.67;;;;;;;25.40;75.09;100916.03;5053280;28;20212;-75
2023/08/15 10:52:58;;;;;;;2.50;2.30;;;;;;;25.52;75.42;100936.50;5053925;28;20240;-75
2023/08/15 10:55:27;;;;;;;2.70;2.50;;;;;;;25.34;75.88;100935.19;5054011;28;20237;-75
2023/08/15 10:57:55;;;;;;;2.80;2.60;;;;;;;25.39;74.69;100941.06;5053275;28;20215;-75
2023/08/15 11:00:23;;;;;;;2.47;2.27;;;;;;;25.35;75.30;100936.88;5069556;28;20617;-76
2023/08/15 11:02:49;;;;;;;3.23;2.80;;;;;;;25.57;75.73;100906.75;5073156;28;20252;-76
2023/08/15 11:05:19;;;;;;;2.70;2.50;;;;;;;25.65;75.15;100955.16;5073375;28;20205;-75
2023/08/15 11:07:46;;;;;;;2.40;2.30;;;;;;;25.61;74.16;100968.84;5073319;28;20215;-74
2023/08/15 11:10:12;;;;;;;2.00;1.90;;;;;;;25.53;71.96;101018.41;5073322;28;20209;-74
2023/08/15 11:12:47;;;;;;;2.30;2.00;;;;;;;25.64;71.55;100996.22;5073270;28;20728;-75
2023/08/15 11:15:13;;;;;;;2.17;2.07;;;;;;;26.01;72.58;100995.38;5072952;28;20201;-75
2023/08/15 11:17:40;;;;;;;2.50;2.30;;;;;;;26.22;70.99;101031.19;5074062;28;20209;-76
2023/08/15 11:20:07;;;;;;;2.10;2.00;;;;;;;26.45;71.44;101026.75;5072840;28;20200;-76
2023/08/15 11:22:35;;;;;;;2.00;1.90;;;;;;;26.52;70.13;101051.22;5066217;28;20229;-76